createdAt,value
2022-08-02T00:00:40.886Z,5.13
2022-08-02T00:03:09.041Z,5.20
2022-08-02T00:05:38.807Z,4.80
2022-08-02T00:08:08.542Z,5.22
2022-08-02T00:10:36.666Z,5.03
2022-08-02T00:13:05.562Z,5.97
2022-08-02T00:15:33.668Z,6.32
2022-08-02T00:18:01.793Z,6.05
2022-08-02T00:20:30.069Z,6.20
2022-08-02T00:22:59.627Z,6.78
2022-08-02T00:25:27.739Z,6.20
2022-08-02T00:27:55.887Z,7.00
2022-08-02T00:30:24.169Z,7.18
2022-08-02T00:32:52.331Z,7.18
2022-08-02T00:35:20.733Z,6.47
2022-08-02T00:37:48.830Z,7.05
2022-08-02T00:40:23.206Z,6.35
2022-08-02T00:43:04.281Z,6.55
2022-08-02T00:46:02.660Z,8.13
2022-08-02T00:48:20.857Z,6.45
2022-08-02T00:50:48.957Z,6.78
2022-08-02T00:53:17.065Z,7.22
2022-08-02T00:55:46.503Z,7.45
2022-08-02T00:58:14.726Z,7.68
2022-08-02T01:00:43.059Z,7.85
2022-08-02T01:03:11.247Z,8.07
2022-08-02T01:06:10.425Z,6.47
2022-08-02T01:08:29.594Z,7.55
2022-08-02T01:11:01.336Z,6.90
2022-08-02T01:13:29.581Z,7.63
2022-08-02T01:16:05.464Z,7.32
2022-08-02T01:21:24.609Z,6.80
2022-08-02T01:24:09.851Z,5.07
2022-08-02T01:26:48.054Z,6.75
2022-08-02T01:29:23.729Z,6.82
2022-08-02T01:31:56.805Z,6.45
2022-08-02T01:34:32.285Z,7.22
2022-08-02T01:37:08.520Z,7.40
2022-08-02T01:39:39.446Z,7.03
2022-08-02T01:42:09.777Z,6.75
2022-08-02T01:44:43.370Z,7.32
2022-08-02T01:47:18.805Z,6.43
2022-08-02T01:49:49.086Z,7.00
2022-08-02T01:52:26.154Z,7.68
2022-08-02T01:55:00.551Z,8.15
2022-08-02T01:57:32.314Z,7.47
2022-08-02T02:00:02.552Z,7.10
2022-08-02T02:02:33.282Z,7.72
2022-08-02T02:05:03.119Z,6.93
2022-08-02T02:07:34.297Z,7.38
2022-08-02T02:10:03.991Z,7.65
2022-08-02T02:12:35.253Z,7.80
2022-08-02T02:15:05.866Z,6.88
2022-08-02T02:17:53.054Z,8.32
2022-08-02T02:20:24.610Z,7.88
2022-08-02T02:22:53.136Z,6.88
2022-08-02T02:25:31.632Z,7.43
2022-08-02T02:28:08.453Z,7.68
2022-08-02T02:30:41.011Z,7.93
2022-08-02T02:33:10.877Z,8.25
2022-08-02T02:35:40.482Z,9.27
2022-08-02T02:38:14.613Z,8.30
2022-08-02T02:40:44.475Z,8.85
2022-08-02T02:43:14.018Z,7.45
2022-08-02T02:45:44.665Z,6.63
2022-08-02T02:48:13.504Z,7.10
2022-08-02T02:50:43.972Z,8.90
2022-08-02T02:53:13.776Z,8.40
2022-08-02T02:56:01.757Z,9.30
2022-08-02T02:58:31.665Z,9.15
2022-08-02T03:01:19.198Z,9.20
2022-08-02T03:03:47.827Z,7.57
2022-08-02T03:06:16.157Z,7.30
2022-08-02T03:08:44.788Z,8.35
2022-08-02T03:11:15.741Z,8.68
2022-08-02T03:13:43.930Z,7.68
2022-08-02T03:16:14.456Z,8.05
2022-08-02T03:18:44.629Z,9.02
2022-08-02T03:21:14.554Z,10.48
2022-08-02T03:23:43.770Z,9.50
2022-08-02T03:26:12.190Z,8.73
2022-08-02T03:28:40.357Z,9.50
2022-08-02T03:31:09.117Z,9.60
2022-08-02T03:33:40.195Z,9.13
2022-08-02T03:36:12.450Z,10.55
2022-08-02T03:38:41.785Z,10.05
2022-08-02T03:41:12.270Z,10.00
2022-08-02T03:43:41.597Z,9.85
2022-08-02T03:46:10.924Z,8.60
2022-08-02T03:48:40.841Z,9.70
2022-08-02T03:51:09.644Z,8.57
2022-08-02T03:53:40.205Z,9.85
2022-08-02T03:56:08.951Z,9.65
2022-08-02T03:58:37.110Z,10.35
2022-08-02T04:01:05.445Z,11.07
2022-08-02T04:03:33.721Z,10.40
2022-08-02T04:06:04.561Z,10.77
2022-08-02T04:08:37.540Z,10.70
2022-08-02T04:11:23.610Z,10.77
2022-08-02T04:13:51.983Z,9.13
2022-08-02T04:16:22.522Z,8.82
2022-08-02T04:18:56.955Z,6.10
2022-08-02T04:21:42.605Z,7.50
2022-08-02T04:24:20.467Z,5.32
2022-08-02T04:26:54.270Z,5.00
2022-08-02T04:29:23.481Z,5.32
2022-08-02T04:31:52.741Z,4.65
2022-08-02T04:34:21.270Z,4.53
2022-08-02T04:36:51.522Z,4.03
2022-08-02T04:39:20.522Z,4.32
2022-08-02T04:41:48.918Z,3.60
2022-08-02T04:44:17.026Z,3.08
2022-08-02T04:46:46.502Z,3.60
2022-08-02T04:49:14.791Z,3.15
2022-08-02T04:51:44.108Z,3.22
2022-08-02T04:54:13.804Z,2.88
2022-08-02T04:56:42.163Z,2.80
2022-08-02T04:59:10.511Z,2.83
2022-08-02T05:01:39.427Z,2.80
2022-08-02T05:04:07.562Z,2.40
2022-08-02T05:06:35.658Z,3.38
2022-08-02T05:09:03.858Z,2.50
2022-08-02T05:11:36.609Z,3.00
2022-08-02T05:14:06.495Z,3.00
2022-08-02T05:16:34.816Z,3.17
2022-08-02T05:19:03.464Z,3.50
2022-08-02T05:21:32.640Z,3.50
2022-08-02T05:24:00.894Z,3.30
2022-08-02T05:26:29.037Z,3.63
2022-08-02T05:28:58.550Z,3.47
2022-08-02T05:31:26.688Z,4.15
2022-08-02T05:33:54.875Z,3.88
2022-08-02T05:36:23.077Z,3.53
2022-08-02T05:38:52.982Z,3.38
2022-08-02T05:41:27.963Z,3.38
2022-08-02T05:43:56.139Z,3.10
2022-08-02T05:46:25.658Z,3.47
2022-08-02T05:48:53.968Z,3.28
2022-08-02T05:51:27.306Z,3.65
2022-08-02T05:54:04.304Z,3.80
2022-08-02T05:56:36.422Z,3.67
2022-08-02T05:59:11.224Z,2.75
2022-08-02T06:01:44.132Z,2.90
2022-08-02T06:04:21.769Z,3.25
2022-08-02T06:06:53.939Z,2.58
2022-08-02T06:09:26.991Z,3.00
2022-08-02T06:12:02.825Z,2.88
2022-08-02T06:14:34.123Z,3.67
2022-08-02T06:17:05.845Z,3.53
2022-08-02T06:19:50.845Z,3.75
2022-08-02T06:22:34.022Z,3.78
2022-08-02T06:25:11.604Z,3.70
2022-08-02T06:27:56.487Z,3.42
2022-08-02T06:30:25.060Z,3.35
2022-08-02T06:32:56.595Z,3.42
2022-08-02T06:35:36.725Z,3.92
2022-08-02T06:38:05.685Z,3.40
2022-08-02T06:40:40.922Z,3.53
2022-08-02T06:43:14.066Z,3.08
2022-08-02T06:45:42.393Z,3.55
2022-08-02T06:48:12.174Z,3.60
2022-08-02T06:50:42.177Z,3.33
2022-08-02T06:53:11.295Z,3.35
2022-08-02T06:55:43.946Z,3.33
2022-08-02T06:58:13.200Z,3.10
2022-08-02T07:00:41.862Z,3.58
2022-08-02T07:03:11.426Z,3.90
2022-08-02T07:05:39.804Z,2.90
2022-08-02T07:08:07.963Z,4.20
2022-08-02T07:10:36.034Z,3.80
2022-08-02T07:13:04.113Z,2.78
2022-08-02T07:15:32.223Z,2.53
2022-08-02T07:18:00.392Z,3.10
2022-08-02T07:20:30.201Z,1.63
2022-08-02T07:22:58.384Z,2.50
2022-08-02T07:25:26.493Z,1.92
2022-08-02T07:28:23.587Z,1.90
2022-08-02T07:30:52.599Z,2.53
2022-08-02T07:33:38.187Z,2.35
2022-08-02T07:36:13.900Z,2.00
2022-08-02T07:38:50.931Z,2.42
2022-08-02T07:41:19.843Z,2.28
2022-08-02T07:43:47.902Z,2.33
2022-08-02T07:46:15.967Z,1.52
2022-08-02T07:48:44.072Z,1.92
2022-08-02T07:51:17.203Z,1.50
2022-08-02T07:53:51.273Z,2.20
2022-08-02T07:56:30.245Z,2.00
2022-08-02T07:58:58.285Z,1.50
2022-08-02T08:01:26.450Z,1.95
2022-08-02T08:03:54.573Z,2.08
2022-08-02T08:06:28.473Z,2.10
2022-08-02T08:08:57.282Z,2.22
2022-08-02T08:11:25.680Z,1.67
2022-08-02T08:13:53.921Z,1.90
2022-08-02T08:16:22.199Z,1.50
2022-08-02T08:18:50.346Z,1.70
2022-08-02T08:21:18.463Z,1.73
2022-08-02T08:23:47.911Z,1.73
2022-08-02T08:26:17.278Z,1.55
2022-08-02T08:28:45.347Z,1.60
2022-08-02T08:31:13.581Z,1.80
2022-08-02T08:33:41.798Z,1.70
2022-08-02T08:36:10.057Z,1.27
2022-08-02T08:38:38.263Z,1.38
2022-08-02T08:41:08.424Z,1.30
2022-08-02T08:43:36.597Z,1.58
2022-08-02T08:46:06.097Z,1.75
2022-08-02T08:48:37.708Z,1.40
2022-08-02T08:51:11.587Z,1.42
2022-08-02T08:53:43.488Z,1.00
2022-08-02T08:56:16.534Z,1.25
2022-08-02T08:58:47.441Z,1.02
2022-08-02T09:01:16.951Z,1.38
2022-08-02T09:03:45.533Z,1.10
2022-08-02T09:06:13.646Z,1.20
2022-08-02T09:08:41.683Z,1.73
2022-08-02T09:11:18.108Z,1.42
2022-08-02T09:13:52.110Z,1.20
2022-08-02T09:16:33.345Z,1.30
2022-08-02T09:19:02.601Z,1.13
2022-08-02T09:21:37.480Z,1.23
2022-08-02T09:24:18.652Z,1.35
2022-08-02T09:26:48.985Z,1.45
2022-08-02T09:29:17.957Z,1.30
2022-08-02T09:31:49.931Z,1.45
2022-08-02T09:34:19.962Z,1.80
2022-08-02T09:36:54.568Z,1.70
2022-08-02T09:39:23.928Z,1.67
2022-08-02T09:41:53.491Z,2.63
2022-08-02T09:44:21.613Z,2.60
2022-08-02T09:46:49.722Z,2.35
2022-08-02T09:49:19.821Z,1.88
2022-08-02T09:51:51.669Z,2.10
2022-08-02T09:54:21.055Z,2.10
2022-08-02T09:56:50.592Z,1.27
2022-08-02T09:59:22.953Z,1.73
2022-08-02T10:02:01.523Z,1.30
2022-08-02T10:04:34.535Z,1.38
2022-08-02T10:07:21.666Z,1.33
2022-08-02T10:09:51.489Z,1.40
2022-08-02T10:12:22.342Z,1.17
2022-08-02T10:14:53.209Z,1.17
2022-08-02T10:17:22.834Z,1.20
2022-08-02T10:20:03.270Z,1.50
2022-08-02T10:22:34.421Z,0.93
2022-08-02T10:25:04.114Z,1.33
2022-08-02T10:27:49.258Z,1.10
2022-08-02T10:30:26.076Z,1.20
2022-08-02T10:32:56.190Z,0.98
2022-08-02T10:35:26.700Z,1.20
2022-08-02T10:37:57.275Z,1.48
2022-08-02T10:40:26.886Z,1.50
2022-08-02T10:42:59.563Z,1.30
2022-08-02T10:45:30.627Z,1.40
2022-08-02T10:48:00.579Z,1.10
2022-08-02T10:50:56.584Z,1.45
2022-08-02T10:53:26.775Z,1.50
2022-08-02T10:55:55.847Z,1.23
2022-08-02T10:58:29.330Z,1.40
2022-08-02T11:01:00.078Z,1.60
2022-08-02T11:03:42.418Z,1.60
2022-08-02T11:06:25.160Z,1.58
2022-08-02T11:09:33.228Z,1.95
2022-08-02T11:12:04.425Z,1.83
2022-08-02T11:14:33.792Z,1.60
2022-08-02T11:17:11.679Z,1.55
2022-08-02T11:20:18.082Z,1.58
2022-08-02T11:22:48.123Z,1.48
2022-08-02T11:26:00.985Z,1.75
2022-08-02T11:28:24.765Z,1.77
2022-08-02T11:30:58.622Z,1.90
2022-08-02T11:33:33.740Z,2.00
2022-08-02T11:36:04.569Z,1.38
2022-08-02T11:38:32.766Z,1.77
2022-08-02T11:41:06.030Z,2.08
2022-08-02T11:43:38.882Z,1.80
2022-08-02T11:46:14.214Z,1.80
2022-08-02T11:48:44.650Z,1.92
2022-08-02T11:51:14.708Z,2.15
2022-08-02T11:53:44.624Z,1.60
2022-08-02T11:56:13.477Z,1.80
2022-08-02T11:59:03.126Z,1.83
2022-08-02T12:01:32.330Z,2.00
2022-08-02T12:04:08.253Z,1.45
2022-08-02T12:06:36.482Z,1.60
2022-08-02T12:09:06.608Z,1.75
2022-08-02T12:11:50.112Z,1.77
2022-08-02T12:14:19.213Z,1.80
2022-08-02T12:17:06.610Z,1.77
2022-08-02T12:19:37.098Z,1.83
2022-08-02T12:22:10.947Z,1.90
2022-08-02T12:24:40.715Z,1.95
2022-08-02T12:27:09.405Z,1.90
2022-08-02T12:29:58.659Z,1.48
2022-08-02T12:32:27.509Z,1.90
2022-08-02T12:35:26.423Z,1.60
2022-08-02T12:37:55.171Z,1.77
2022-08-02T12:40:26.607Z,1.67
2022-08-02T12:42:58.770Z,2.28
2022-08-02T12:45:38.360Z,1.48
2022-08-02T12:48:10.371Z,1.70
2022-08-02T12:50:40.419Z,1.80
2022-08-02T12:53:10.725Z,1.27
2022-08-02T12:56:02.453Z,1.55
2022-08-02T12:58:32.235Z,2.03
2022-08-02T13:01:01.530Z,1.60
2022-08-02T13:04:09.607Z,1.60
2022-08-02T13:06:39.869Z,1.50
2022-08-02T13:09:17.236Z,1.52
2022-08-02T13:11:46.239Z,1.63
2022-08-02T13:14:14.948Z,1.33
2022-08-02T13:16:44.407Z,1.60
2022-08-02T13:19:13.229Z,1.63
2022-08-02T13:22:02.556Z,1.42
2022-08-02T13:24:38.788Z,1.45
2022-08-02T13:27:10.013Z,1.80
2022-08-02T13:29:38.733Z,1.70
2022-08-02T13:32:07.305Z,2.10
2022-08-02T13:34:35.455Z,1.50
2022-08-02T13:37:05.678Z,1.63
2022-08-02T13:39:33.825Z,1.70
2022-08-02T13:42:01.908Z,1.70
2022-08-02T13:44:30.070Z,1.45
2022-08-02T13:46:58.431Z,2.00
2022-08-02T13:49:50.989Z,1.52
2022-08-02T13:52:16.531Z,1.77
2022-08-02T13:54:44.803Z,1.50
2022-08-02T13:57:13.086Z,2.05
2022-08-02T13:59:56.788Z,1.67
2022-08-02T14:02:28.265Z,1.58
2022-08-02T14:04:57.093Z,1.83
2022-08-02T14:07:26.590Z,1.50
2022-08-02T14:09:54.676Z,1.80
2022-08-02T14:12:22.759Z,1.98
2022-08-02T14:14:51.159Z,1.65
2022-08-02T14:17:19.851Z,2.20
2022-08-02T14:19:48.219Z,2.20
2022-08-02T14:22:16.384Z,2.15
2022-08-02T14:24:45.895Z,1.80
2022-08-02T14:27:15.676Z,1.75
2022-08-02T14:29:43.831Z,1.70
2022-08-02T14:32:12.304Z,1.77
2022-08-02T14:34:40.586Z,1.58
2022-08-02T14:37:08.722Z,1.63
2022-08-02T14:39:43.537Z,1.50
2022-08-02T14:42:26.578Z,1.95
2022-08-02T14:44:54.739Z,1.88
2022-08-02T14:47:22.903Z,1.85
2022-08-02T14:49:51.155Z,2.28
2022-08-02T14:52:19.797Z,1.75
2022-08-02T14:54:48.179Z,1.75
2022-08-02T14:57:16.433Z,2.42
2022-08-02T14:59:45.917Z,1.45
2022-08-02T15:02:14.843Z,1.75
2022-08-02T15:04:43.995Z,1.77
2022-08-02T15:07:13.866Z,2.28
2022-08-02T15:09:42.234Z,1.50
2022-08-02T15:12:11.799Z,1.70
2022-08-02T15:14:40.446Z,1.90
2022-08-02T15:17:10.771Z,1.80
2022-08-02T15:19:58.966Z,1.95
2022-08-02T15:22:28.867Z,2.22
2022-08-02T15:24:57.171Z,1.75
2022-08-02T15:27:25.661Z,2.22
2022-08-02T15:30:00.287Z,1.63
2022-08-02T15:32:30.474Z,2.10
2022-08-02T15:34:58.769Z,1.90
2022-08-02T15:37:30.963Z,1.90
2022-08-02T15:40:00.172Z,1.88
2022-08-02T15:42:30.668Z,1.52
2022-08-02T15:45:00.298Z,1.70
2022-08-02T15:47:29.816Z,2.30
2022-08-02T15:49:58.614Z,1.95
2022-08-02T15:52:27.171Z,1.90
2022-08-02T15:54:55.570Z,1.75
2022-08-02T15:57:24.113Z,2.25
2022-08-02T15:59:53.324Z,1.80
2022-08-02T16:02:21.590Z,1.60
2022-08-02T16:04:51.245Z,1.70
2022-08-02T16:07:19.458Z,1.70
2022-08-02T16:09:47.583Z,1.75
2022-08-02T16:12:16.090Z,1.70
2022-08-02T16:14:45.502Z,1.60
2022-08-02T16:17:13.677Z,1.90
2022-08-02T16:19:49.130Z,2.25
2022-08-02T16:22:19.994Z,1.60
2022-08-02T16:24:48.172Z,1.90
2022-08-02T16:27:16.255Z,1.50
2022-08-02T16:29:44.577Z,1.80
2022-08-02T16:32:15.165Z,1.92
2022-08-02T16:35:07.660Z,1.90
2022-08-02T16:37:50.546Z,1.75
2022-08-02T16:40:21.037Z,1.83
2022-08-02T16:42:50.844Z,2.65
2022-08-02T16:45:20.959Z,1.88
2022-08-02T16:47:57.396Z,2.05
2022-08-02T16:50:29.453Z,2.00
2022-08-02T16:52:59.222Z,1.95
2022-08-02T16:55:29.117Z,2.00
2022-08-02T16:57:58.815Z,2.25
2022-08-02T17:00:27.178Z,2.28
2022-08-02T17:02:59.304Z,2.30
2022-08-02T17:05:37.579Z,2.15
2022-08-02T17:08:17.000Z,1.67
2022-08-02T17:10:45.846Z,2.28
2022-08-02T17:13:14.366Z,2.03
2022-08-02T17:16:01.122Z,2.00
2022-08-02T17:18:32.529Z,2.15
2022-08-02T17:21:04.177Z,2.13
2022-08-02T17:24:04.194Z,2.20
2022-08-02T17:26:23.081Z,2.30
2022-08-02T17:29:14.465Z,2.05
2022-08-02T17:31:44.351Z,2.50
2022-08-02T17:34:13.625Z,3.20
2022-08-02T17:36:45.125Z,2.55
2022-08-02T17:39:19.338Z,2.60
2022-08-02T17:41:49.093Z,3.15
2022-08-02T17:44:37.648Z,2.25
2022-08-02T17:47:08.769Z,2.20
2022-08-02T17:49:47.772Z,2.13
2022-08-02T17:52:52.003Z,2.38
2022-08-02T17:55:07.114Z,2.28
2022-08-02T17:57:55.922Z,2.05
2022-08-02T18:00:24.711Z,1.75
2022-08-02T18:02:55.401Z,2.00
2022-08-02T18:05:38.998Z,2.20
2022-08-02T18:08:08.784Z,2.47
2022-08-02T18:10:39.376Z,1.90
2022-08-02T18:13:07.712Z,2.10
2022-08-02T18:15:35.945Z,2.50
2022-08-02T18:18:04.192Z,1.95
2022-08-02T18:20:32.342Z,2.22
2022-08-02T18:23:00.572Z,2.22
2022-08-02T18:25:37.771Z,2.03
2022-08-02T18:28:15.501Z,1.92
2022-08-02T18:30:43.849Z,2.13
2022-08-02T18:33:59.366Z,1.95
2022-08-02T18:36:00.347Z,1.90
2022-08-02T18:38:30.345Z,2.15
2022-08-02T18:41:02.316Z,2.05
2022-08-02T18:43:34.578Z,2.40
2022-08-02T18:46:15.740Z,2.58
2022-08-02T18:48:47.074Z,2.33
2022-08-02T18:51:18.718Z,2.30
2022-08-02T18:53:48.944Z,2.00
2022-08-02T18:56:19.629Z,2.35
2022-08-02T18:58:54.551Z,2.42
2022-08-02T19:01:32.184Z,2.28
2022-08-02T19:04:02.579Z,2.58
2022-08-02T19:06:31.051Z,2.10
2022-08-02T19:09:03.541Z,2.58
2022-08-02T19:11:50.097Z,2.00
2022-08-02T19:14:27.482Z,2.30
2022-08-02T19:16:57.805Z,2.28
2022-08-02T19:19:29.225Z,2.88
2022-08-02T19:22:18.598Z,2.90
2022-08-02T19:24:47.219Z,2.30
2022-08-02T19:27:20.727Z,2.90
2022-08-02T19:29:56.026Z,3.78
2022-08-02T19:32:41.531Z,3.75
2022-08-02T19:35:15.198Z,3.03
2022-08-02T19:37:59.117Z,2.88
2022-08-02T19:40:29.005Z,3.10
2022-08-02T19:44:26.242Z,3.38
2022-08-02T19:45:49.065Z,2.85
2022-08-02T19:48:24.546Z,3.33
2022-08-02T19:50:56.212Z,2.85
2022-08-02T19:53:28.868Z,3.40
2022-08-02T19:56:20.728Z,3.40
2022-08-02T19:58:51.434Z,3.20
2022-08-02T20:01:28.082Z,3.53
2022-08-02T20:04:05.894Z,3.50
2022-08-02T20:06:34.149Z,3.80
2022-08-02T20:09:02.401Z,3.83
2022-08-02T20:11:34.869Z,3.42
2022-08-02T20:14:05.190Z,4.07
2022-08-02T20:16:35.446Z,4.55
2022-08-02T20:19:04.180Z,4.20
2022-08-02T20:21:36.546Z,5.00
2022-08-02T20:24:07.141Z,4.10
2022-08-02T20:26:35.763Z,3.92
2022-08-02T20:29:06.270Z,4.53
2022-08-02T20:31:37.909Z,3.85
2022-08-02T20:34:07.225Z,4.00
2022-08-02T20:36:35.630Z,4.60
2022-08-02T20:39:03.721Z,4.03
2022-08-02T20:41:37.145Z,4.07
2022-08-02T20:44:16.144Z,4.85
2022-08-02T20:47:00.626Z,4.68
2022-08-02T20:49:41.511Z,5.05
2022-08-02T20:52:23.038Z,4.57
2022-08-02T20:54:52.542Z,4.78
2022-08-02T20:57:20.661Z,4.63
2022-08-02T21:00:10.155Z,4.90
2022-08-02T21:02:40.018Z,4.70
2022-08-02T21:05:17.259Z,4.80
2022-08-02T21:07:58.956Z,4.68
2022-08-02T21:10:27.060Z,5.25
2022-08-02T21:12:55.152Z,5.07
2022-08-02T21:15:24.616Z,5.25
2022-08-02T21:17:58.962Z,5.28
2022-08-02T21:20:44.241Z,5.55
2022-08-02T21:23:19.947Z,5.40
2022-08-02T21:25:56.819Z,5.22
2022-08-02T21:28:43.592Z,5.53
2022-08-02T21:31:14.876Z,4.55
2022-08-02T21:33:56.855Z,5.13
2022-08-02T21:36:31.240Z,5.25
2022-08-02T21:39:04.798Z,5.53
2022-08-02T21:41:39.625Z,6.13
2022-08-02T21:44:16.403Z,5.43
2022-08-02T21:46:45.754Z,5.47
2022-08-02T21:49:16.674Z,6.15
2022-08-02T21:51:48.882Z,6.32
2022-08-02T21:54:20.412Z,6.05
2022-08-02T21:56:50.173Z,6.57
2022-08-02T21:59:26.132Z,6.97
2022-08-02T22:01:56.778Z,5.85
2022-08-02T22:04:27.182Z,6.15
2022-08-02T22:06:55.817Z,5.70
2022-08-02T22:09:42.313Z,6.20
2022-08-02T22:12:16.643Z,6.75
2022-08-02T22:14:49.697Z,5.80
2022-08-02T22:17:50.920Z,6.18
2022-08-02T22:20:13.684Z,6.45
2022-08-02T22:22:42.146Z,7.35
2022-08-02T22:25:27.318Z,6.20
2022-08-02T22:28:34.750Z,5.97
2022-08-02T22:30:52.631Z,6.25
2022-08-02T22:33:38.960Z,6.10
2022-08-02T22:36:12.230Z,6.35
2022-08-02T22:38:44.393Z,6.13
2022-08-02T22:41:13.183Z,6.40
2022-08-02T22:43:41.661Z,6.60
2022-08-02T22:46:10.227Z,6.35
2022-08-02T22:48:44.011Z,6.97
2022-08-02T22:51:13.660Z,6.68
2022-08-02T22:53:42.213Z,5.93
2022-08-02T22:56:11.056Z,6.18
2022-08-02T23:01:28.521Z,5.65
2022-08-02T23:03:56.850Z,6.55
2022-08-02T23:06:26.377Z,7.13
2022-08-02T23:08:54.567Z,6.05
2022-08-02T23:11:23.316Z,6.28
2022-08-02T23:13:51.449Z,6.45
2022-08-02T23:16:38.047Z,6.28
2022-08-02T23:19:20.095Z,6.38
2022-08-02T23:22:01.684Z,6.85
2022-08-02T23:24:33.173Z,6.07
2022-08-02T23:27:01.970Z,5.78
2022-08-02T23:29:30.133Z,6.88
2022-08-02T23:31:59.003Z,6.85
2022-08-02T23:34:27.429Z,7.32
2022-08-02T23:36:56.946Z,6.45
2022-08-02T23:39:25.199Z,6.50
2022-08-02T23:41:54.794Z,6.93
2022-08-02T23:44:24.068Z,7.20
2022-08-02T23:46:53.385Z,8.23
2022-08-02T23:49:22.120Z,6.97
2022-08-02T23:51:50.822Z,6.45
2022-08-02T23:54:21.154Z,7.35
2022-08-02T23:56:49.454Z,6.68
2022-08-02T23:59:17.883Z,7.38
